createdAt,value
2018-11-06T00:01:12.150Z,18.85
2018-11-06T00:03:45.790Z,20.27
2018-11-06T00:06:14.297Z,24.15
2018-11-06T00:08:42.480Z,21.60
2018-11-06T00:11:11.660Z,21.42
2018-11-06T00:13:39.902Z,21.00
2018-11-06T00:16:09.161Z,20.62
2018-11-06T00:18:37.354Z,25.17
2018-11-06T00:21:05.967Z,20.97
2018-11-06T00:23:34.179Z,22.42
2018-11-06T00:26:02.708Z,23.05
2018-11-06T00:28:31.093Z,22.50
2018-11-06T00:30:59.293Z,20.35
2018-11-06T00:33:27.461Z,20.40
2018-11-06T00:35:55.678Z,18.48
2018-11-06T00:38:23.876Z,18.12
2018-11-06T00:40:52.090Z,22.65
2018-11-06T00:43:20.295Z,21.10
2018-11-06T00:45:48.509Z,19.02
2018-11-06T00:48:16.699Z,18.27
2018-11-06T00:50:44.934Z,19.07
2018-11-06T00:53:13.127Z,19.65
2018-11-06T00:55:41.330Z,17.65
2018-11-06T00:58:09.518Z,18.60
2018-11-06T01:00:37.722Z,23.98
2018-11-06T01:03:05.933Z,20.57
2018-11-06T01:05:34.363Z,17.87
2018-11-06T01:08:02.546Z,17.62
2018-11-06T01:10:30.764Z,17.98
2018-11-06T01:12:59.005Z,19.00
2018-11-06T01:15:27.228Z,20.25
2018-11-06T01:17:55.427Z,22.45
2018-11-06T01:20:23.855Z,17.52
2018-11-06T01:22:52.286Z,19.70
2018-11-06T01:25:20.510Z,21.55
2018-11-06T01:27:48.721Z,18.50
2018-11-06T01:30:18.701Z,22.10
2018-11-06T01:32:47.378Z,23.30
2018-11-06T01:35:16.691Z,19.57
2018-11-06T01:37:45.698Z,19.90
2018-11-06T01:40:15.191Z,18.30
2018-11-06T01:42:43.982Z,20.45
2018-11-06T01:45:13.387Z,21.65
2018-11-06T01:47:41.882Z,19.60
2018-11-06T01:50:12.294Z,18.27
2018-11-06T01:52:40.926Z,17.52
2018-11-06T01:55:10.678Z,22.42
2018-11-06T01:57:38.914Z,20.20
2018-11-06T02:00:10.006Z,17.65
2018-11-06T02:02:38.222Z,20.48
2018-11-06T02:05:07.511Z,20.50
2018-11-06T02:07:35.816Z,17.62
2018-11-06T02:10:04.068Z,18.65
2018-11-06T02:12:32.302Z,20.57
2018-11-06T02:15:00.479Z,21.25
2018-11-06T02:17:28.662Z,21.25
2018-11-06T02:19:56.861Z,21.75
2018-11-06T02:22:25.077Z,20.12
2018-11-06T02:24:53.291Z,16.90
2018-11-06T02:27:21.535Z,21.93
2018-11-06T02:29:49.790Z,24.05
2018-11-06T02:32:18.651Z,19.90
2018-11-06T02:34:46.873Z,19.82
2018-11-06T02:37:15.085Z,17.10
2018-11-06T02:39:43.510Z,17.60
2018-11-06T02:42:11.710Z,17.15
2018-11-06T02:44:39.914Z,19.70
2018-11-06T02:47:08.411Z,20.37
2018-11-06T02:49:37.659Z,20.40
2018-11-06T02:52:06.298Z,18.20
2018-11-06T02:54:34.539Z,15.65
2018-11-06T02:57:02.807Z,17.48
2018-11-06T02:59:31.009Z,16.97
2018-11-06T03:01:59.199Z,16.57
2018-11-06T03:04:27.394Z,15.40
2018-11-06T03:06:55.600Z,16.32
2018-11-06T03:09:23.811Z,15.03
2018-11-06T03:11:52.022Z,20.85
2018-11-06T03:14:20.417Z,18.95
2018-11-06T03:16:48.652Z,23.00
2018-11-06T03:19:20.054Z,17.02
2018-11-06T03:21:48.306Z,17.12
2018-11-06T03:24:16.496Z,21.62
2018-11-06T03:26:44.721Z,17.37
2018-11-06T03:29:12.907Z,21.27
2018-11-06T03:31:41.135Z,16.62
2018-11-06T03:34:09.542Z,17.57
2018-11-06T03:36:37.751Z,27.13
2018-11-06T03:39:07.690Z,17.23
2018-11-06T03:41:35.923Z,20.30
2018-11-06T03:44:04.325Z,21.02
2018-11-06T03:46:32.537Z,16.57
2018-11-06T03:49:00.904Z,17.17
2018-11-06T03:51:29.209Z,21.90
2018-11-06T03:53:57.442Z,22.45
2018-11-06T03:56:25.653Z,20.80
2018-11-06T03:58:53.851Z,20.00
2018-11-06T04:01:22.067Z,20.82
2018-11-06T04:03:50.259Z,19.02
2018-11-06T04:06:18.532Z,22.40
2018-11-06T04:08:46.763Z,21.73
2018-11-06T04:11:14.950Z,23.85
2018-11-06T04:13:43.190Z,21.82
2018-11-06T04:16:11.406Z,21.30
2018-11-06T04:18:39.642Z,18.98
2018-11-06T04:21:07.845Z,20.32
2018-11-06T04:23:36.020Z,23.12
2018-11-06T04:26:04.240Z,24.87
2018-11-06T04:28:32.653Z,21.48
2018-11-06T04:31:00.859Z,20.65
2018-11-06T04:33:29.033Z,19.60
2018-11-06T04:35:57.230Z,18.90
2018-11-06T04:38:25.407Z,19.67
2018-11-06T04:40:53.617Z,18.82
2018-11-06T04:43:21.843Z,19.80
2018-11-06T04:45:49.997Z,19.80
2018-11-06T04:48:18.198Z,25.50
2018-11-06T04:50:46.390Z,19.67
2018-11-06T04:53:14.659Z,19.65
2018-11-06T04:55:43.082Z,18.87
2018-11-06T04:58:11.936Z,20.80
2018-11-06T05:00:40.441Z,20.90
2018-11-06T05:03:08.917Z,18.52
2018-11-06T05:05:37.670Z,22.02
2018-11-06T05:08:06.315Z,21.23
2018-11-06T05:10:34.810Z,17.87
2018-11-06T05:13:03.268Z,18.52
2018-11-06T05:15:31.626Z,20.40
2018-11-06T05:18:00.034Z,20.90
2018-11-06T05:20:28.535Z,18.55
2018-11-06T05:22:57.030Z,18.87
2018-11-06T05:25:25.435Z,21.73
2018-11-06T05:27:53.757Z,20.45
2018-11-06T05:30:22.400Z,21.85
2018-11-06T05:33:33.777Z,19.20
2018-11-06T05:36:15.686Z,20.80
2018-11-06T05:38:47.446Z,21.85
2018-11-06T05:41:16.335Z,21.50
2018-11-06T05:43:50.516Z,22.73
2018-11-06T05:46:19.600Z,25.90
2018-11-06T05:48:52.198Z,20.17
2018-11-06T05:51:21.781Z,22.42
2018-11-06T05:53:52.760Z,24.65
2018-11-06T05:56:22.112Z,21.60
2018-11-06T05:58:52.254Z,22.22
2018-11-06T06:01:20.661Z,22.52
2018-11-06T06:03:49.525Z,18.75
2018-11-06T06:06:18.443Z,19.10
2018-11-06T06:08:46.947Z,24.55
2018-11-06T06:11:16.031Z,19.98
2018-11-06T06:16:34.951Z,19.73
2018-11-06T06:19:05.966Z,22.22
2018-11-06T06:21:34.524Z,22.52
2018-11-06T06:24:02.986Z,24.12
2018-11-06T06:26:31.535Z,21.80
2018-11-06T06:31:52.335Z,19.42
2018-11-06T06:34:21.046Z,19.80
2018-11-06T06:36:49.489Z,19.85
2018-11-06T06:39:17.878Z,23.10
2018-11-06T06:41:46.381Z,18.48
2018-11-06T06:44:16.604Z,16.95
2018-11-06T06:46:45.291Z,15.25
2018-11-06T06:49:13.752Z,17.73
2018-11-06T06:51:42.190Z,20.25
2018-11-06T06:54:10.646Z,18.87
2018-11-06T06:56:38.913Z,20.88
2018-11-06T06:59:08.562Z,20.20
2018-11-06T07:01:37.028Z,23.38
2018-11-06T07:04:05.699Z,20.30
2018-11-06T07:06:34.071Z,19.10
2018-11-06T07:09:02.447Z,20.40
2018-11-06T07:11:30.791Z,18.60
2018-11-06T07:13:59.128Z,18.32
2018-11-06T07:16:27.451Z,15.88
2018-11-06T07:18:55.853Z,19.73
2018-11-06T07:21:24.322Z,17.67
2018-11-06T07:23:52.570Z,14.33
2018-11-06T07:26:20.996Z,15.70
2018-11-06T07:28:49.382Z,21.65
2018-11-06T07:31:18.014Z,16.80
2018-11-06T07:33:46.343Z,14.93
2018-11-06T07:36:14.696Z,16.02
2018-11-06T07:38:43.151Z,17.52
2018-11-06T07:41:11.435Z,15.90
2018-11-06T07:43:40.042Z,15.85
2018-11-06T07:46:08.583Z,19.67
2018-11-06T07:48:37.227Z,17.45
2018-11-06T07:51:05.507Z,16.45
2018-11-06T07:53:33.731Z,15.08
2018-11-06T07:56:01.952Z,19.20
2018-11-06T07:58:30.140Z,15.93
2018-11-06T08:00:58.479Z,17.23
2018-11-06T08:03:26.851Z,14.63
2018-11-06T08:05:55.246Z,17.80
2018-11-06T08:08:23.906Z,16.75
2018-11-06T08:10:52.320Z,16.05
2018-11-06T08:13:20.674Z,15.05
2018-11-06T08:15:49.014Z,16.15
2018-11-06T08:18:17.350Z,15.53
2018-11-06T08:20:45.851Z,16.23
2018-11-06T08:23:14.169Z,19.12
2018-11-06T08:25:44.002Z,14.90
2018-11-06T08:28:12.316Z,14.80
2018-11-06T08:30:40.816Z,13.20
2018-11-06T08:33:09.614Z,15.10
2018-11-06T08:35:37.970Z,15.35
2018-11-06T08:38:06.320Z,15.67
2018-11-06T08:40:34.992Z,14.20
2018-11-06T08:43:03.311Z,19.20
2018-11-06T08:45:32.184Z,16.33
2018-11-06T08:48:00.576Z,15.00
2018-11-06T08:50:29.319Z,16.60
2018-11-06T08:52:57.755Z,13.97
2018-11-06T08:55:26.083Z,15.50
2018-11-06T08:57:54.503Z,15.67
2018-11-06T09:00:22.836Z,13.80
2018-11-06T09:02:51.203Z,14.45
2018-11-06T09:05:19.667Z,14.80
2018-11-06T09:07:48.005Z,19.70
2018-11-06T09:10:17.244Z,16.00
2018-11-06T09:12:45.639Z,15.30
2018-11-06T09:15:15.071Z,15.23
2018-11-06T09:17:43.610Z,15.10
2018-11-06T09:20:13.157Z,15.97
2018-11-06T09:22:41.527Z,15.40
2018-11-06T09:25:12.230Z,15.43
2018-11-06T09:27:41.397Z,16.60
2018-11-06T09:30:11.873Z,13.73
2018-11-06T09:32:40.151Z,16.00
2018-11-06T09:35:09.517Z,11.93
2018-11-06T09:37:37.916Z,14.27
2018-11-06T09:40:07.922Z,17.10
2018-11-06T09:42:36.308Z,18.90
2018-11-06T09:45:04.858Z,12.97
2018-11-06T09:47:33.091Z,22.73
2018-11-06T09:50:01.429Z,16.00
2018-11-06T09:52:29.767Z,14.07
2018-11-06T09:54:58.203Z,13.23
2018-11-06T09:57:26.479Z,17.43
2018-11-06T09:59:54.794Z,13.73
2018-11-06T10:02:23.150Z,14.10
2018-11-06T10:04:51.451Z,16.33
2018-11-06T10:07:20.539Z,14.67
2018-11-06T10:09:48.623Z,15.50
2018-11-06T10:12:16.968Z,13.20
2018-11-06T10:14:45.708Z,15.10
2018-11-06T10:17:14.402Z,14.73
2018-11-06T10:19:42.771Z,12.83
2018-11-06T10:22:11.527Z,14.93
2018-11-06T10:24:39.960Z,14.53
2018-11-06T10:27:08.244Z,15.60
2018-11-06T10:29:36.766Z,13.63
2018-11-06T10:32:05.404Z,13.23
2018-11-06T10:34:33.728Z,19.37
2018-11-06T10:37:02.080Z,18.40
2018-11-06T10:39:30.423Z,16.43
2018-11-06T10:41:58.874Z,16.50
2018-11-06T10:47:17.976Z,16.33
2018-11-06T10:49:46.626Z,15.53
2018-11-06T10:52:14.931Z,15.00
2018-11-06T10:54:43.188Z,14.23
2018-11-06T10:57:11.503Z,13.90
2018-11-06T10:59:40.464Z,19.87
2018-11-06T11:02:14.306Z,12.67
2018-11-06T11:04:43.007Z,15.60
2018-11-06T11:07:11.355Z,15.60
2018-11-06T11:09:39.814Z,18.93
2018-11-06T11:12:08.130Z,12.03
2018-11-06T11:14:36.469Z,14.90
2018-11-06T11:17:05.388Z,13.43
2018-11-06T11:19:33.684Z,14.27
2018-11-06T11:22:02.664Z,17.20
2018-11-06T11:24:31.722Z,15.93
2018-11-06T11:27:00.057Z,15.07
2018-11-06T11:29:28.446Z,13.43
2018-11-06T11:32:09.466Z,17.03
2018-11-06T11:34:41.948Z,14.90
2018-11-06T11:41:24.615Z,15.33
2018-11-06T11:43:53.119Z,14.67
2018-11-06T11:46:21.469Z,11.63
2018-11-06T11:48:50.937Z,14.73
2018-11-06T11:51:20.371Z,14.17
2018-11-06T11:56:40.865Z,13.23
2018-11-06T11:59:10.757Z,12.40
2018-11-06T12:01:39.478Z,16.90
2018-11-06T12:04:08.437Z,16.10
2018-11-06T12:06:36.774Z,15.47
2018-11-06T12:09:07.907Z,13.53
2018-11-06T12:11:36.364Z,13.90
2018-11-06T12:14:04.740Z,13.63
2018-11-06T12:16:33.214Z,11.80
2018-11-06T12:19:01.595Z,13.03
2018-11-06T12:21:29.915Z,13.27
2018-11-06T12:23:58.934Z,10.80
2018-11-06T12:26:27.711Z,13.80
2018-11-06T12:28:56.164Z,14.23
2018-11-06T12:31:24.656Z,12.13
2018-11-06T12:33:53.092Z,11.67
2018-11-06T12:36:21.790Z,13.60
2018-11-06T12:38:50.393Z,10.80
2018-11-06T12:41:18.975Z,13.37
2018-11-06T12:43:50.873Z,12.07
2018-11-06T12:46:20.057Z,12.23
2018-11-06T12:48:48.616Z,13.13
2018-11-06T12:51:17.337Z,9.53
2018-11-06T12:53:46.859Z,11.13
2018-11-06T12:56:15.470Z,13.17
2018-11-06T12:58:43.756Z,11.40
2018-11-06T13:01:12.391Z,13.83
2018-11-06T13:03:40.703Z,13.90
2018-11-06T13:06:09.332Z,12.30
2018-11-06T13:08:37.720Z,12.60
2018-11-06T13:11:06.524Z,13.17
2018-11-06T13:13:35.229Z,12.53
2018-11-06T13:16:04.445Z,13.50
2018-11-06T13:18:34.587Z,12.37
2018-11-06T13:21:03.932Z,10.23
2018-11-06T13:23:32.510Z,11.20
2018-11-06T13:26:02.810Z,10.60
2018-11-06T13:28:33.561Z,12.10
2018-11-06T13:31:03.837Z,11.90
2018-11-06T13:33:32.220Z,16.40
2018-11-06T13:36:00.805Z,11.07
2018-11-06T13:38:29.620Z,10.17
2018-11-06T13:40:58.719Z,10.73
2018-11-06T13:43:27.080Z,12.10
2018-11-06T13:45:55.302Z,12.13
2018-11-06T13:48:23.615Z,14.23
2018-11-06T13:50:51.906Z,9.47
2018-11-06T13:53:20.391Z,14.93
2018-11-06T13:55:48.610Z,10.50
2018-11-06T13:58:17.164Z,11.10
2018-11-06T14:00:45.666Z,13.27
2018-11-06T14:03:13.959Z,10.57
2018-11-06T14:05:42.441Z,11.40
2018-11-06T14:08:10.654Z,15.03
2018-11-06T14:10:38.911Z,11.33
2018-11-06T14:13:07.221Z,10.67
2018-11-06T14:15:35.532Z,10.83
2018-11-06T14:18:04.203Z,11.50
2018-11-06T14:20:32.426Z,10.60
2018-11-06T14:23:01.062Z,13.97
2018-11-06T14:25:29.395Z,13.23
2018-11-06T14:27:57.776Z,12.23
2018-11-06T14:30:26.033Z,11.70
2018-11-06T14:32:54.266Z,10.93
2018-11-06T14:35:22.648Z,11.83
2018-11-06T14:37:51.150Z,12.93
2018-11-06T14:40:19.346Z,9.83
2018-11-06T14:42:47.879Z,10.13
2018-11-06T14:45:17.323Z,13.60
2018-11-06T14:47:45.554Z,11.97
2018-11-06T14:50:14.171Z,13.63
2018-11-06T14:52:42.366Z,19.20
2018-11-06T14:55:12.053Z,12.83
2018-11-06T14:57:40.543Z,15.00
2018-11-06T15:00:18.440Z,13.33
2018-11-06T15:02:47.783Z,14.80
2018-11-06T15:05:16.683Z,13.10
2018-11-06T15:07:44.988Z,12.90
2018-11-06T15:10:13.210Z,14.10
2018-11-06T15:12:41.692Z,12.93
2018-11-06T15:15:11.300Z,15.40
2018-11-06T15:17:40.183Z,13.20
2018-11-06T15:20:11.130Z,12.83
2018-11-06T15:22:39.501Z,14.87
2018-11-06T15:25:08.534Z,17.40
2018-11-06T15:27:36.770Z,16.70
2018-11-06T15:30:06.727Z,15.80
2018-11-06T15:32:34.968Z,17.90
2018-11-06T15:35:03.223Z,17.77
2018-11-06T15:37:31.448Z,21.07
2018-11-06T15:39:59.703Z,16.73
2018-11-06T15:42:27.902Z,18.93
2018-11-06T15:44:56.125Z,16.47
2018-11-06T15:50:16.270Z,18.87
2018-11-06T15:52:45.362Z,13.98
2018-11-06T15:55:13.627Z,17.27
2018-11-06T15:57:41.882Z,14.83
2018-11-06T16:00:19.007Z,17.50
2018-11-06T16:02:47.791Z,14.03
2018-11-06T16:05:16.110Z,14.47
2018-11-06T16:07:44.537Z,17.32
2018-11-06T16:10:15.000Z,19.45
2018-11-06T16:12:43.853Z,19.30
2018-11-06T16:15:12.197Z,20.20
2018-11-06T16:17:40.382Z,30.25
2018-11-06T16:20:10.634Z,19.60
2018-11-06T16:22:38.942Z,21.23
2018-11-06T16:25:08.842Z,16.80
2018-11-06T16:27:37.606Z,14.20
2018-11-06T16:30:07.915Z,17.37
2018-11-06T16:32:36.156Z,15.10
2018-11-06T16:35:05.031Z,16.30
2018-11-06T16:37:33.363Z,12.90
2018-11-06T16:40:01.595Z,13.55
2018-11-06T16:42:30.010Z,16.32
2018-11-06T16:44:58.479Z,14.10
2018-11-06T16:47:27.671Z,16.73
2018-11-06T16:49:56.976Z,19.00
2018-11-06T16:52:25.701Z,16.80
2018-11-06T16:54:57.095Z,15.98
2018-11-06T16:57:25.739Z,18.20
2018-11-06T16:59:54.864Z,19.90
2018-11-06T17:02:24.002Z,16.40
2018-11-06T17:04:52.828Z,15.10
2018-11-06T17:07:21.680Z,18.55
2018-11-06T17:09:50.483Z,14.00
2018-11-06T17:12:19.340Z,17.23
2018-11-06T17:14:49.664Z,14.35
2018-11-06T17:17:18.448Z,16.37
2018-11-06T17:19:47.513Z,14.07
2018-11-06T17:22:16.619Z,13.70
2018-11-06T17:24:45.229Z,14.85
2018-11-06T17:27:14.452Z,17.30
2018-11-06T17:29:43.407Z,14.58
2018-11-06T17:32:12.209Z,14.33
2018-11-06T17:34:40.948Z,18.87
2018-11-06T17:37:10.370Z,15.90
2018-11-06T17:39:39.636Z,16.80
2018-11-06T17:42:08.276Z,18.50
2018-11-06T17:44:36.956Z,15.48
2018-11-06T17:47:06.187Z,15.78
2018-11-06T17:49:34.946Z,21.37
2018-11-06T17:52:04.392Z,15.08
2018-11-06T17:54:33.543Z,14.03
2018-11-06T17:57:02.482Z,15.25
2018-11-06T17:59:31.421Z,16.02
2018-11-06T18:02:00.378Z,17.20
2018-11-06T18:04:29.305Z,12.97
2018-11-06T18:06:58.055Z,14.83
2018-11-06T18:09:27.032Z,16.50
2018-11-06T18:11:55.801Z,16.73
2018-11-06T18:14:24.350Z,15.95
2018-11-06T18:16:53.211Z,16.42
2018-11-06T18:19:21.951Z,19.60
2018-11-06T18:21:50.659Z,16.80
2018-11-06T18:24:19.143Z,16.42
2018-11-06T18:26:47.633Z,20.62
2018-11-06T18:29:16.402Z,24.23
2018-11-06T18:31:45.036Z,20.23
2018-11-06T18:34:13.519Z,17.62
2018-11-06T18:36:42.585Z,21.33
2018-11-06T18:39:13.291Z,22.15
2018-11-06T18:41:41.836Z,25.82
2018-11-06T18:44:11.575Z,20.40
2018-11-06T18:46:40.476Z,22.77
2018-11-06T18:49:09.784Z,18.67
2018-11-06T18:51:39.716Z,15.53
2018-11-06T18:54:12.484Z,16.12
2018-11-06T18:56:41.962Z,19.70
2018-11-06T18:59:10.773Z,16.20
2018-11-06T19:01:39.622Z,21.00
2018-11-06T19:04:09.315Z,19.82
2018-11-06T19:06:43.782Z,16.05
2018-11-06T19:09:13.383Z,16.32
2018-11-06T19:11:42.462Z,16.35
2018-11-06T19:14:12.005Z,17.37
2018-11-06T19:16:41.022Z,12.40
2018-11-06T19:19:10.348Z,16.97
2018-11-06T19:21:39.339Z,15.60
2018-11-06T19:24:08.366Z,13.58
2018-11-06T19:26:38.569Z,14.68
2018-11-06T19:29:08.201Z,16.40
2018-11-06T19:31:37.748Z,13.72
2018-11-06T19:34:06.490Z,14.85
2018-11-06T19:36:35.421Z,13.35
2018-11-06T19:39:06.761Z,17.02
2018-11-06T19:41:35.681Z,19.98
2018-11-06T19:44:04.632Z,38.50
2018-11-06T19:46:33.652Z,36.20
2018-11-06T19:49:03.454Z,18.25
2018-11-06T19:51:34.664Z,15.08
2018-11-06T19:54:03.570Z,17.65
2018-11-06T19:56:32.934Z,16.55
2018-11-06T19:59:03.297Z,15.35
2018-11-06T20:01:32.188Z,16.57
2018-11-06T20:04:00.996Z,16.65
2018-11-06T20:06:30.524Z,15.48
2018-11-06T20:08:59.488Z,17.10
2018-11-06T20:11:28.532Z,15.68
2018-11-06T20:13:58.689Z,16.65
2018-11-06T20:16:28.260Z,16.42
2018-11-06T20:18:57.242Z,15.35
2018-11-06T20:21:27.851Z,14.90
2018-11-06T20:23:57.352Z,13.88
2018-11-06T20:26:26.120Z,15.48
2018-11-06T20:28:55.204Z,15.53
2018-11-06T20:31:24.175Z,15.75
2018-11-06T20:33:53.177Z,12.98
2018-11-06T20:36:21.858Z,15.40
2018-11-06T20:38:51.307Z,15.30
2018-11-06T20:41:20.536Z,14.40
2018-11-06T20:43:49.410Z,15.60
2018-11-06T20:46:39.706Z,16.17
2018-11-06T20:49:08.851Z,20.45
2018-11-06T20:51:37.377Z,16.70
2018-11-06T20:54:07.043Z,13.95
2018-11-06T20:56:37.012Z,15.48
2018-11-06T20:59:06.640Z,16.07
2018-11-06T21:01:35.528Z,16.10
2018-11-06T21:04:04.213Z,15.98
2018-11-06T21:06:33.351Z,15.68
2018-11-06T21:09:02.921Z,15.43
2018-11-06T21:11:32.418Z,14.80
2018-11-06T21:14:01.954Z,12.15
2018-11-06T21:16:30.728Z,14.83
2018-11-06T21:19:00.195Z,14.00
2018-11-06T21:21:29.817Z,15.53
2018-11-06T21:23:58.648Z,14.18
2018-11-06T21:26:27.534Z,15.43
2018-11-06T21:28:56.369Z,13.78
2018-11-06T21:31:25.580Z,15.20
2018-11-06T21:33:54.689Z,12.25
2018-11-06T21:36:23.598Z,14.58
2018-11-06T21:38:52.586Z,17.35
2018-11-06T21:41:21.133Z,18.37
2018-11-06T21:43:49.979Z,13.90
2018-11-06T21:46:18.675Z,15.03
2018-11-06T21:48:47.493Z,14.68
2018-11-06T21:51:16.191Z,13.70
2018-11-06T21:53:44.782Z,13.25
2018-11-06T21:56:13.595Z,11.85
2018-11-06T21:58:43.802Z,14.13
2018-11-06T22:01:12.482Z,15.00
2018-11-06T22:03:41.729Z,16.48
2018-11-06T22:06:15.279Z,15.13
2018-11-06T22:08:43.950Z,17.92
2018-11-06T22:11:13.651Z,15.75
2018-11-06T22:13:42.567Z,15.60
2018-11-06T22:16:12.211Z,13.13
2018-11-06T22:18:40.773Z,17.42
2018-11-06T22:21:10.719Z,18.32
2018-11-06T22:23:41.086Z,15.05
2018-11-06T22:26:09.637Z,16.70
2018-11-06T22:28:38.384Z,18.42
2018-11-06T22:31:07.153Z,14.70
2018-11-06T22:33:35.846Z,14.30
2018-11-06T22:36:04.707Z,17.35
2018-11-06T22:38:35.348Z,15.90
2018-11-06T22:41:04.324Z,15.05
2018-11-06T22:43:33.274Z,17.50
2018-11-06T22:46:01.856Z,14.05
2018-11-06T22:48:31.078Z,14.93
2018-11-06T22:51:01.174Z,14.68
2018-11-06T22:53:30.033Z,14.93
2018-11-06T22:55:59.086Z,14.53
2018-11-06T22:58:27.782Z,16.12
2018-11-06T23:01:01.749Z,15.00
2018-11-06T23:03:30.589Z,13.78
2018-11-06T23:05:59.363Z,13.13
2018-11-06T23:08:28.819Z,14.33
2018-11-06T23:10:57.404Z,17.50
2018-11-06T23:13:25.929Z,14.55
2018-11-06T23:15:55.096Z,11.93
2018-11-06T23:18:23.920Z,16.35
2018-11-06T23:20:53.632Z,13.68
2018-11-06T23:23:22.823Z,11.08
2018-11-06T23:25:52.188Z,11.88
2018-11-06T23:28:21.455Z,11.55
2018-11-06T23:30:51.132Z,11.43
2018-11-06T23:33:19.817Z,12.28
2018-11-06T23:35:48.590Z,10.50
2018-11-06T23:38:17.408Z,11.65
2018-11-06T23:40:45.861Z,12.07
2018-11-06T23:43:14.434Z,12.23
2018-11-06T23:45:43.008Z,11.55
2018-11-06T23:48:11.529Z,12.23
2018-11-06T23:50:40.415Z,13.53
2018-11-06T23:53:10.506Z,11.55
2018-11-06T23:55:40.071Z,13.22
2018-11-06T23:58:09.359Z,11.25
